sensor_id;sensor_type;location;lat;lon;timestamp;P1;durP1;ratioP1;P2;durP2;ratioP2
23988;SDS011;12202;52.136;5.592;2023-01-08T00:01:36;12.80;;;7.18;;
23988;SDS011;12202;52.136;5.592;2023-01-08T00:04:02;10.18;;;7.00;;
23988;SDS011;12202;52.136;5.592;2023-01-08T00:06:28;12.27;;;7.38;;
23988;SDS011;12202;52.136;5.592;2023-01-08T00:08:54;14.63;;;7.18;;
23988;SDS011;12202;52.136;5.592;2023-01-08T00:11:20;13.25;;;6.63;;
23988;SDS011;12202;52.136;5.592;2023-01-08T00:13:46;10.50;;;6.57;;
23988;SDS011;12202;52.136;5.592;2023-01-08T00:16:14;7.82;;;5.25;;
23988;SDS011;12202;52.136;5.592;2023-01-08T00:18:40;9.85;;;4.32;;
23988;SDS011;12202;52.136;5.592;2023-01-08T00:21:07;9.38;;;3.88;;
23988;SDS011;12202;52.136;5.592;2023-01-08T00:23:33;8.80;;;4.22;;
23988;SDS011;12202;52.136;5.592;2023-01-08T00:26:03;12.40;;;5.00;;
23988;SDS011;12202;52.136;5.592;2023-01-08T00:28:29;5.95;;;3.70;;
23988;SDS011;12202;52.136;5.592;2023-01-08T00:30:56;6.45;;;4.05;;
23988;SDS011;12202;52.136;5.592;2023-01-08T00:33:22;8.30;;;4.30;;
23988;SDS011;12202;52.136;5.592;2023-01-08T00:35:48;10.02;;;4.25;;
23988;SDS011;12202;52.136;5.592;2023-01-08T00:38:14;7.82;;;3.67;;
23988;SDS011;12202;52.136;5.592;2023-01-08T00:40:40;4.93;;;2.67;;
23988;SDS011;12202;52.136;5.592;2023-01-08T00:43:06;6.03;;;2.88;;
23988;SDS011;12202;52.136;5.592;2023-01-08T00:45:33;4.95;;;2.47;;
23988;SDS011;12202;52.136;5.592;2023-01-08T00:47:59;10.02;;;3.10;;
23988;SDS011;12202;52.136;5.592;2023-01-08T00:50:25;9.95;;;2.70;;
23988;SDS011;12202;52.136;5.592;2023-01-08T00:52:52;8.13;;;2.45;;
23988;SDS011;12202;52.136;5.592;2023-01-08T00:55:18;15.45;;;3.70;;
23988;SDS011;12202;52.136;5.592;2023-01-08T00:57:44;7.00;;;2.58;;
23988;SDS011;12202;52.136;5.592;2023-01-08T01:00:11;9.50;;;2.92;;
23988;SDS011;12202;52.136;5.592;2023-01-08T01:02:37;9.68;;;3.85;;
23988;SDS011;12202;52.136;5.592;2023-01-08T01:05:04;10.75;;;3.88;;
23988;SDS011;12202;52.136;5.592;2023-01-08T01:07:31;8.77;;;4.65;;
23988;SDS011;12202;52.136;5.592;2023-01-08T01:09:58;8.68;;;5.60;;
23988;SDS011;12202;52.136;5.592;2023-01-08T01:12:24;10.50;;;5.75;;
23988;SDS011;12202;52.136;5.592;2023-01-08T01:14:50;16.13;;;6.10;;
23988;SDS011;12202;52.136;5.592;2023-01-08T01:17:16;11.73;;;6.10;;
23988;SDS011;12202;52.136;5.592;2023-01-08T01:19:43;8.73;;;6.32;;
23988;SDS011;12202;52.136;5.592;2023-01-08T01:22:09;12.65;;;6.50;;
23988;SDS011;12202;52.136;5.592;2023-01-08T01:24:36;11.32;;;5.97;;
23988;SDS011;12202;52.136;5.592;2023-01-08T01:27:02;11.60;;;6.03;;
23988;SDS011;12202;52.136;5.592;2023-01-08T01:29:28;12.75;;;6.30;;
23988;SDS011;12202;52.136;5.592;2023-01-08T01:31:54;10.55;;;5.90;;
23988;SDS011;12202;52.136;5.592;2023-01-08T01:34:20;11.93;;;6.18;;
23988;SDS011;12202;52.136;5.592;2023-01-08T01:36:46;12.70;;;5.30;;
23988;SDS011;12202;52.136;5.592;2023-01-08T01:39:12;9.13;;;4.97;;
23988;SDS011;12202;52.136;5.592;2023-01-08T01:41:39;8.95;;;5.75;;
23988;SDS011;12202;52.136;5.592;2023-01-08T01:46:52;12.68;;;5.65;;
23988;SDS011;12202;52.136;5.592;2023-01-08T01:49:19;8.45;;;5.20;;
23988;SDS011;12202;52.136;5.592;2023-01-08T01:51:48;11.32;;;5.72;;
23988;SDS011;12202;52.136;5.592;2023-01-08T01:54:15;8.95;;;5.90;;
23988;SDS011;12202;52.136;5.592;2023-01-08T01:56:42;12.07;;;5.70;;
23988;SDS011;12202;52.136;5.592;2023-01-08T01:59:09;9.68;;;5.32;;
23988;SDS011;12202;52.136;5.592;2023-01-08T02:01:35;14.20;;;4.88;;
23988;SDS011;12202;52.136;5.592;2023-01-08T02:04:02;8.38;;;4.90;;
23988;SDS011;12202;52.136;5.592;2023-01-08T02:09:41;16.95;;;5.05;;
23988;SDS011;12202;52.136;5.592;2023-01-08T02:12:25;9.95;;;5.25;;
23988;SDS011;12202;52.136;5.592;2023-01-08T02:17:27;8.93;;;4.10;;
23988;SDS011;12202;52.136;5.592;2023-01-08T02:19:58;5.80;;;3.10;;
23988;SDS011;12202;52.136;5.592;2023-01-08T02:22:36;5.95;;;3.95;;
23988;SDS011;12202;52.136;5.592;2023-01-08T02:27:31;9.85;;;4.40;;
23988;SDS011;12202;52.136;5.592;2023-01-08T02:29:59;8.00;;;3.30;;
23988;SDS011;12202;52.136;5.592;2023-01-08T02:32:26;5.95;;;3.13;;
23988;SDS011;12202;52.136;5.592;2023-01-08T02:34:52;6.65;;;3.63;;
23988;SDS011;12202;52.136;5.592;2023-01-08T02:37:18;7.75;;;4.45;;
23988;SDS011;12202;52.136;5.592;2023-01-08T02:40:06;9.65;;;3.65;;
23988;SDS011;12202;52.136;5.592;2023-01-08T02:42:50;7.70;;;3.90;;
23988;SDS011;12202;52.136;5.592;2023-01-08T02:45:25;6.20;;;4.30;;
23988;SDS011;12202;52.136;5.592;2023-01-08T02:48:01;10.27;;;4.55;;
23988;SDS011;12202;52.136;5.592;2023-01-08T02:50:39;9.77;;;3.78;;
23988;SDS011;12202;52.136;5.592;2023-01-08T02:53:14;9.13;;;3.95;;
23988;SDS011;12202;52.136;5.592;2023-01-08T02:55:41;14.00;;;4.47;;
23988;SDS011;12202;52.136;5.592;2023-01-08T02:58:09;11.10;;;3.67;;
23988;SDS011;12202;52.136;5.592;2023-01-08T03:00:36;9.80;;;4.40;;
23988;SDS011;12202;52.136;5.592;2023-01-08T03:03:14;15.25;;;5.30;;
23988;SDS011;12202;52.136;5.592;2023-01-08T03:05:41;8.85;;;4.20;;
23988;SDS011;12202;52.136;5.592;2023-01-08T03:08:08;7.05;;;4.15;;
23988;SDS011;12202;52.136;5.592;2023-01-08T03:10:36;7.57;;;4.18;;
23988;SDS011;12202;52.136;5.592;2023-01-08T03:13:03;8.27;;;4.70;;
23988;SDS011;12202;52.136;5.592;2023-01-08T03:15:31;12.98;;;5.25;;
23988;SDS011;12202;52.136;5.592;2023-01-08T03:18:00;8.32;;;4.82;;
23988;SDS011;12202;52.136;5.592;2023-01-08T03:20:29;14.55;;;5.28;;
23988;SDS011;12202;52.136;5.592;2023-01-08T03:22:56;7.38;;;4.70;;
23988;SDS011;12202;52.136;5.592;2023-01-08T03:25:23;9.82;;;5.13;;
23988;SDS011;12202;52.136;5.592;2023-01-08T03:27:52;11.13;;;5.53;;
23988;SDS011;12202;52.136;5.592;2023-01-08T03:30:19;13.63;;;5.53;;
23988;SDS011;12202;52.136;5.592;2023-01-08T03:32:46;13.70;;;6.78;;
23988;SDS011;12202;52.136;5.592;2023-01-08T03:35:13;14.82;;;5.95;;
23988;SDS011;12202;52.136;5.592;2023-01-08T03:37:41;12.88;;;6.60;;
23988;SDS011;12202;52.136;5.592;2023-01-08T03:40:13;15.32;;;6.32;;
23988;SDS011;12202;52.136;5.592;2023-01-08T03:42:41;13.38;;;6.80;;
23988;SDS011;12202;52.136;5.592;2023-01-08T03:45:07;16.08;;;6.57;;
23988;SDS011;12202;52.136;5.592;2023-01-08T03:47:33;12.15;;;6.65;;
23988;SDS011;12202;52.136;5.592;2023-01-08T03:50:00;16.70;;;6.40;;
23988;SDS011;12202;52.136;5.592;2023-01-08T03:52:28;12.85;;;6.75;;
23988;SDS011;12202;52.136;5.592;2023-01-08T03:54:55;14.95;;;7.05;;
23988;SDS011;12202;52.136;5.592;2023-01-08T03:57:21;11.25;;;6.28;;
23988;SDS011;12202;52.136;5.592;2023-01-08T03:59:48;11.25;;;6.30;;
23988;SDS011;12202;52.136;5.592;2023-01-08T04:02:14;13.65;;;7.18;;
23988;SDS011;12202;52.136;5.592;2023-01-08T04:04:40;10.85;;;6.72;;
23988;SDS011;12202;52.136;5.592;2023-01-08T04:07:07;12.02;;;5.95;;
23988;SDS011;12202;52.136;5.592;2023-01-08T04:09:35;15.35;;;5.70;;
23988;SDS011;12202;52.136;5.592;2023-01-08T04:12:01;7.97;;;4.40;;
23988;SDS011;12202;52.136;5.592;2023-01-08T04:14:27;8.50;;;4.28;;
23988;SDS011;12202;52.136;5.592;2023-01-08T04:16:53;10.23;;;4.20;;
23988;SDS011;12202;52.136;5.592;2023-01-08T04:19:19;14.95;;;3.80;;
23988;SDS011;12202;52.136;5.592;2023-01-08T04:21:45;21.50;;;4.07;;
23988;SDS011;12202;52.136;5.592;2023-01-08T04:24:14;9.30;;;2.90;;
23988;SDS011;12202;52.136;5.592;2023-01-08T04:26:40;12.88;;;2.35;;
23988;SDS011;12202;52.136;5.592;2023-01-08T04:29:06;13.65;;;2.55;;
23988;SDS011;12202;52.136;5.592;2023-01-08T04:31:32;4.70;;;2.20;;
23988;SDS011;12202;52.136;5.592;2023-01-08T04:33:58;16.52;;;2.75;;
23988;SDS011;12202;52.136;5.592;2023-01-08T04:36:25;4.60;;;1.90;;
23988;SDS011;12202;52.136;5.592;2023-01-08T04:38:51;6.78;;;2.20;;
23988;SDS011;12202;52.136;5.592;2023-01-08T04:41:17;11.65;;;2.72;;
23988;SDS011;12202;52.136;5.592;2023-01-08T04:43:43;10.20;;;1.98;;
23988;SDS011;12202;52.136;5.592;2023-01-08T04:46:09;6.63;;;1.85;;
23988;SDS011;12202;52.136;5.592;2023-01-08T04:48:35;16.17;;;2.00;;
23988;SDS011;12202;52.136;5.592;2023-01-08T04:51:02;11.30;;;2.05;;
23988;SDS011;12202;52.136;5.592;2023-01-08T04:53:28;9.85;;;2.05;;
23988;SDS011;12202;52.136;5.592;2023-01-08T04:55:54;8.88;;;2.33;;
23988;SDS011;12202;52.136;5.592;2023-01-08T04:58:20;15.70;;;3.03;;
23988;SDS011;12202;52.136;5.592;2023-01-08T05:00:46;7.45;;;2.00;;
23988;SDS011;12202;52.136;5.592;2023-01-08T05:03:12;10.20;;;2.20;;
23988;SDS011;12202;52.136;5.592;2023-01-08T05:05:39;8.05;;;1.80;;
23988;SDS011;12202;52.136;5.592;2023-01-08T05:08:05;8.10;;;2.72;;
23988;SDS011;12202;52.136;5.592;2023-01-08T05:10:31;10.50;;;2.22;;
23988;SDS011;12202;52.136;5.592;2023-01-08T05:13:01;12.00;;;2.03;;
23988;SDS011;12202;52.136;5.592;2023-01-08T05:15:27;11.20;;;2.78;;
23988;SDS011;12202;52.136;5.592;2023-01-08T05:17:57;10.48;;;2.30;;
23988;SDS011;12202;52.136;5.592;2023-01-08T05:20:23;11.55;;;2.30;;
23988;SDS011;12202;52.136;5.592;2023-01-08T05:22:49;7.40;;;2.67;;
23988;SDS011;12202;52.136;5.592;2023-01-08T05:25:15;16.65;;;2.30;;
23988;SDS011;12202;52.136;5.592;2023-01-08T05:27:42;11.90;;;2.08;;
23988;SDS011;12202;52.136;5.592;2023-01-08T05:30:08;12.52;;;2.70;;
23988;SDS011;12202;52.136;5.592;2023-01-08T05:32:34;9.77;;;1.98;;
23988;SDS011;12202;52.136;5.592;2023-01-08T05:35:00;13.50;;;2.72;;
23988;SDS011;12202;52.136;5.592;2023-01-08T05:37:26;10.40;;;3.00;;
23988;SDS011;12202;52.136;5.592;2023-01-08T05:39:52;10.02;;;2.65;;
23988;SDS011;12202;52.136;5.592;2023-01-08T05:42:18;7.55;;;2.53;;
23988;SDS011;12202;52.136;5.592;2023-01-08T05:44:44;14.02;;;2.55;;
23988;SDS011;12202;52.136;5.592;2023-01-08T05:47:10;10.48;;;2.65;;
23988;SDS011;12202;52.136;5.592;2023-01-08T05:49:36;8.60;;;2.72;;
23988;SDS011;12202;52.136;5.592;2023-01-08T05:52:02;7.78;;;2.63;;
23988;SDS011;12202;52.136;5.592;2023-01-08T05:54:28;14.02;;;3.17;;
23988;SDS011;12202;52.136;5.592;2023-01-08T05:56:54;6.03;;;2.33;;
23988;SDS011;12202;52.136;5.592;2023-01-08T05:59:27;14.35;;;3.58;;
23988;SDS011;12202;52.136;5.592;2023-01-08T06:02:28;10.95;;;2.70;;
23988;SDS011;12202;52.136;5.592;2023-01-08T06:04:54;17.38;;;3.63;;
23988;SDS011;12202;52.136;5.592;2023-01-08T06:07:20;8.70;;;2.42;;
23988;SDS011;12202;52.136;5.592;2023-01-08T06:09:46;12.20;;;2.70;;
23988;SDS011;12202;52.136;5.592;2023-01-08T06:12:12;11.23;;;2.90;;
23988;SDS011;12202;52.136;5.592;2023-01-08T06:14:38;13.10;;;3.38;;
23988;SDS011;12202;52.136;5.592;2023-01-08T06:17:04;7.07;;;3.08;;
23988;SDS011;12202;52.136;5.592;2023-01-08T06:19:30;12.13;;;3.47;;
23988;SDS011;12202;52.136;5.592;2023-01-08T06:21:56;10.40;;;2.50;;
23988;SDS011;12202;52.136;5.592;2023-01-08T06:24:22;8.25;;;3.88;;
23988;SDS011;12202;52.136;5.592;2023-01-08T06:26:48;13.02;;;3.15;;
23988;SDS011;12202;52.136;5.592;2023-01-08T06:29:14;12.38;;;2.97;;
23988;SDS011;12202;52.136;5.592;2023-01-08T06:31:40;9.35;;;2.67;;
23988;SDS011;12202;52.136;5.592;2023-01-08T06:34:06;11.75;;;2.83;;
23988;SDS011;12202;52.136;5.592;2023-01-08T06:36:32;18.05;;;3.60;;
23988;SDS011;12202;52.136;5.592;2023-01-08T06:38:58;11.35;;;3.00;;
23988;SDS011;12202;52.136;5.592;2023-01-08T06:41:24;13.90;;;3.00;;
23988;SDS011;12202;52.136;5.592;2023-01-08T06:43:50;13.23;;;3.22;;
23988;SDS011;12202;52.136;5.592;2023-01-08T06:46:16;14.80;;;3.45;;
23988;SDS011;12202;52.136;5.592;2023-01-08T06:48:42;8.57;;;3.40;;
23988;SDS011;12202;52.136;5.592;2023-01-08T06:51:08;12.57;;;3.92;;
23988;SDS011;12202;52.136;5.592;2023-01-08T06:53:34;14.30;;;4.15;;
23988;SDS011;12202;52.136;5.592;2023-01-08T06:56:01;14.88;;;3.55;;
23988;SDS011;12202;52.136;5.592;2023-01-08T06:58:27;12.48;;;4.22;;
23988;SDS011;12202;52.136;5.592;2023-01-08T07:00:54;21.08;;;4.20;;
23988;SDS011;12202;52.136;5.592;2023-01-08T07:03:22;13.63;;;3.50;;
23988;SDS011;12202;52.136;5.592;2023-01-08T07:05:48;12.85;;;3.40;;
23988;SDS011;12202;52.136;5.592;2023-01-08T07:08:15;9.80;;;3.35;;
23988;SDS011;12202;52.136;5.592;2023-01-08T07:10:42;8.90;;;3.40;;
23988;SDS011;12202;52.136;5.592;2023-01-08T07:13:08;9.13;;;3.70;;
23988;SDS011;12202;52.136;5.592;2023-01-08T07:15:36;12.02;;;4.05;;
23988;SDS011;12202;52.136;5.592;2023-01-08T07:18:05;12.73;;;4.55;;
23988;SDS011;12202;52.136;5.592;2023-01-08T07:20:31;10.23;;;3.08;;
23988;SDS011;12202;52.136;5.592;2023-01-08T07:23:05;10.05;;;3.28;;
23988;SDS011;12202;52.136;5.592;2023-01-08T07:25:31;15.38;;;3.22;;
23988;SDS011;12202;52.136;5.592;2023-01-08T07:27:58;15.95;;;5.30;;
23988;SDS011;12202;52.136;5.592;2023-01-08T07:30:24;13.70;;;5.13;;
23988;SDS011;12202;52.136;5.592;2023-01-08T07:32:50;9.98;;;3.38;;
23988;SDS011;12202;52.136;5.592;2023-01-08T07:35:16;9.45;;;3.42;;
23988;SDS011;12202;52.136;5.592;2023-01-08T07:37:42;14.48;;;3.67;;
23988;SDS011;12202;52.136;5.592;2023-01-08T07:40:09;10.15;;;3.65;;
23988;SDS011;12202;52.136;5.592;2023-01-08T07:42:35;7.93;;;2.60;;
23988;SDS011;12202;52.136;5.592;2023-01-08T07:45:01;14.07;;;2.92;;
23988;SDS011;12202;52.136;5.592;2023-01-08T07:47:27;14.13;;;2.83;;
23988;SDS011;12202;52.136;5.592;2023-01-08T07:49:53;16.20;;;3.92;;
23988;SDS011;12202;52.136;5.592;2023-01-08T07:52:20;9.38;;;2.63;;
23988;SDS011;12202;52.136;5.592;2023-01-08T07:54:46;8.15;;;2.65;;
23988;SDS011;12202;52.136;5.592;2023-01-08T07:57:12;15.73;;;3.17;;
23988;SDS011;12202;52.136;5.592;2023-01-08T07:59:38;12.70;;;3.63;;
23988;SDS011;12202;52.136;5.592;2023-01-08T08:02:04;15.20;;;3.28;;
23988;SDS011;12202;52.136;5.592;2023-01-08T08:04:30;15.85;;;2.95;;
23988;SDS011;12202;52.136;5.592;2023-01-08T08:06:56;14.85;;;3.38;;
23988;SDS011;12202;52.136;5.592;2023-01-08T08:09:23;11.60;;;3.20;;
23988;SDS011;12202;52.136;5.592;2023-01-08T08:11:49;18.00;;;3.75;;
23988;SDS011;12202;52.136;5.592;2023-01-08T08:14:15;14.90;;;4.00;;
23988;SDS011;12202;52.136;5.592;2023-01-08T08:16:41;16.63;;;3.92;;
23988;SDS011;12202;52.136;5.592;2023-01-08T08:19:07;10.38;;;3.03;;
23988;SDS011;12202;52.136;5.592;2023-01-08T08:21:32;11.93;;;2.78;;
23988;SDS011;12202;52.136;5.592;2023-01-08T08:23:59;23.65;;;4.18;;
23988;SDS011;12202;52.136;5.592;2023-01-08T08:26:25;18.10;;;3.70;;
23988;SDS011;12202;52.136;5.592;2023-01-08T08:28:51;15.45;;;4.00;;
23988;SDS011;12202;52.136;5.592;2023-01-08T08:31:17;15.65;;;5.00;;
23988;SDS011;12202;52.136;5.592;2023-01-08T08:33:43;14.82;;;4.30;;
23988;SDS011;12202;52.136;5.592;2023-01-08T08:36:09;12.38;;;3.00;;
23988;SDS011;12202;52.136;5.592;2023-01-08T08:38:38;18.00;;;3.17;;
23988;SDS011;12202;52.136;5.592;2023-01-08T08:41:04;24.08;;;3.00;;
23988;SDS011;12202;52.136;5.592;2023-01-08T08:43:30;18.05;;;3.10;;
23988;SDS011;12202;52.136;5.592;2023-01-08T08:45:56;20.77;;;3.80;;
23988;SDS011;12202;52.136;5.592;2023-01-08T08:48:22;13.52;;;2.67;;
23988;SDS011;12202;52.136;5.592;2023-01-08T08:50:48;17.92;;;3.58;;
23988;SDS011;12202;52.136;5.592;2023-01-08T08:53:14;25.52;;;3.75;;
23988;SDS011;12202;52.136;5.592;2023-01-08T08:55:40;20.15;;;3.97;;
23988;SDS011;12202;52.136;5.592;2023-01-08T08:58:10;20.45;;;3.20;;
23988;SDS011;12202;52.136;5.592;2023-01-08T09:00:40;20.33;;;4.35;;
23988;SDS011;12202;52.136;5.592;2023-01-08T09:03:09;18.13;;;4.07;;
23988;SDS011;12202;52.136;5.592;2023-01-08T09:05:36;13.30;;;3.13;;
23988;SDS011;12202;52.136;5.592;2023-01-08T09:08:02;18.02;;;3.38;;
23988;SDS011;12202;52.136;5.592;2023-01-08T09:10:28;20.55;;;2.70;;
23988;SDS011;12202;52.136;5.592;2023-01-08T09:12:54;17.48;;;3.33;;
23988;SDS011;12202;52.136;5.592;2023-01-08T09:15:20;24.50;;;4.00;;
23988;SDS011;12202;52.136;5.592;2023-01-08T09:17:53;25.48;;;4.72;;
23988;SDS011;12202;52.136;5.592;2023-01-08T09:20:19;24.48;;;5.25;;
23988;SDS011;12202;52.136;5.592;2023-01-08T09:22:45;23.23;;;5.10;;
23988;SDS011;12202;52.136;5.592;2023-01-08T09:25:11;24.00;;;4.38;;
23988;SDS011;12202;52.136;5.592;2023-01-08T09:27:37;23.45;;;4.75;;
23988;SDS011;12202;52.136;5.592;2023-01-08T09:30:03;9.82;;;3.20;;
23988;SDS011;12202;52.136;5.592;2023-01-08T09:32:30;17.90;;;3.72;;
23988;SDS011;12202;52.136;5.592;2023-01-08T09:34:56;21.08;;;3.92;;
23988;SDS011;12202;52.136;5.592;2023-01-08T09:37:22;20.55;;;3.45;;
23988;SDS011;12202;52.136;5.592;2023-01-08T09:39:48;16.85;;;3.60;;
23988;SDS011;12202;52.136;5.592;2023-01-08T09:42:14;13.77;;;3.50;;
23988;SDS011;12202;52.136;5.592;2023-01-08T09:44:41;21.05;;;4.25;;
23988;SDS011;12202;52.136;5.592;2023-01-08T09:47:25;19.13;;;4.20;;
23988;SDS011;12202;52.136;5.592;2023-01-08T09:49:53;17.92;;;3.40;;
23988;SDS011;12202;52.136;5.592;2023-01-08T09:52:21;17.35;;;3.38;;
23988;SDS011;12202;52.136;5.592;2023-01-08T09:54:47;25.52;;;4.38;;
23988;SDS011;12202;52.136;5.592;2023-01-08T09:57:17;16.67;;;3.35;;
23988;SDS011;12202;52.136;5.592;2023-01-08T09:59:44;11.82;;;3.28;;
23988;SDS011;12202;52.136;5.592;2023-01-08T10:02:15;20.38;;;3.55;;
23988;SDS011;12202;52.136;5.592;2023-01-08T10:04:42;19.48;;;4.00;;
23988;SDS011;12202;52.136;5.592;2023-01-08T10:07:24;14.23;;;2.92;;
23988;SDS011;12202;52.136;5.592;2023-01-08T10:09:51;19.25;;;4.57;;
23988;SDS011;12202;52.136;5.592;2023-01-08T10:12:30;12.65;;;3.58;;
23988;SDS011;12202;52.136;5.592;2023-01-08T10:15:01;24.10;;;3.30;;
23988;SDS011;12202;52.136;5.592;2023-01-08T10:17:36;21.70;;;3.58;;
23988;SDS011;12202;52.136;5.592;2023-01-08T10:20:23;23.23;;;2.95;;
23988;SDS011;12202;52.136;5.592;2023-01-08T10:22:48;15.23;;;2.88;;
23988;SDS011;12202;52.136;5.592;2023-01-08T10:25:19;25.23;;;3.97;;
23988;SDS011;12202;52.136;5.592;2023-01-08T10:27:46;13.18;;;3.03;;
23988;SDS011;12202;52.136;5.592;2023-01-08T10:30:14;16.58;;;3.17;;
23988;SDS011;12202;52.136;5.592;2023-01-08T10:32:44;15.07;;;3.47;;
23988;SDS011;12202;52.136;5.592;2023-01-08T10:35:13;21.65;;;3.80;;
23988;SDS011;12202;52.136;5.592;2023-01-08T10:37:41;21.25;;;3.80;;
23988;SDS011;12202;52.136;5.592;2023-01-08T10:42:49;23.15;;;3.92;;
23988;SDS011;12202;52.136;5.592;2023-01-08T10:45:22;18.05;;;4.50;;
23988;SDS011;12202;52.136;5.592;2023-01-08T10:47:50;22.63;;;5.20;;
23988;SDS011;12202;52.136;5.592;2023-01-08T10:50:19;25.83;;;5.68;;
23988;SDS011;12202;52.136;5.592;2023-01-08T10:53:02;28.77;;;6.15;;
23988;SDS011;12202;52.136;5.592;2023-01-08T10:55:30;26.75;;;7.47;;
23988;SDS011;12202;52.136;5.592;2023-01-08T10:58:00;27.73;;;4.97;;
23988;SDS011;12202;52.136;5.592;2023-01-08T11:00:27;22.67;;;4.78;;
23988;SDS011;12202;52.136;5.592;2023-01-08T11:02:55;15.88;;;3.70;;
23988;SDS011;12202;52.136;5.592;2023-01-08T11:05:27;18.40;;;4.10;;
23988;SDS011;12202;52.136;5.592;2023-01-08T11:07:55;15.77;;;3.47;;
23988;SDS011;12202;52.136;5.592;2023-01-08T11:10:23;15.52;;;4.00;;
23988;SDS011;12202;52.136;5.592;2023-01-08T11:12:56;17.17;;;4.32;;
23988;SDS011;12202;52.136;5.592;2023-01-08T11:20:46;14.13;;;4.07;;
23988;SDS011;12202;52.136;5.592;2023-01-08T11:23:17;16.63;;;3.90;;
23988;SDS011;12202;52.136;5.592;2023-01-08T11:25:45;19.05;;;4.03;;
23988;SDS011;12202;52.136;5.592;2023-01-08T11:28:15;14.20;;;3.30;;
23988;SDS011;12202;52.136;5.592;2023-01-08T11:30:46;21.60;;;5.38;;
23988;SDS011;12202;52.136;5.592;2023-01-08T11:33:15;11.95;;;4.03;;
23988;SDS011;12202;52.136;5.592;2023-01-08T11:35:49;14.57;;;4.13;;
23988;SDS011;12202;52.136;5.592;2023-01-08T11:38:17;18.77;;;4.28;;
23988;SDS011;12202;52.136;5.592;2023-01-08T11:41:04;22.98;;;4.50;;
23988;SDS011;12202;52.136;5.592;2023-01-08T11:51:29;13.18;;;3.35;;
23988;SDS011;12202;52.136;5.592;2023-01-08T12:02:09;10.88;;;3.10;;
23988;SDS011;12202;52.136;5.592;2023-01-08T12:04:50;13.45;;;3.45;;
23988;SDS011;12202;52.136;5.592;2023-01-08T12:07:23;9.20;;;3.35;;
23988;SDS011;12202;52.136;5.592;2023-01-08T12:09:56;7.88;;;3.33;;
23988;SDS011;12202;52.136;5.592;2023-01-08T12:23:13;9.93;;;2.83;;
23988;SDS011;12202;52.136;5.592;2023-01-08T12:25:48;5.60;;;3.25;;
23988;SDS011;12202;52.136;5.592;2023-01-08T12:31:12;6.35;;;2.75;;
23988;SDS011;12202;52.136;5.592;2023-01-08T12:33:43;9.00;;;2.45;;
23988;SDS011;12202;52.136;5.592;2023-01-08T12:36:14;7.40;;;3.38;;
23988;SDS011;12202;52.136;5.592;2023-01-08T12:38:42;10.27;;;3.10;;
23988;SDS011;12202;52.136;5.592;2023-01-08T12:41:12;11.60;;;2.83;;
23988;SDS011;12202;52.136;5.592;2023-01-08T12:43:54;6.80;;;2.38;;
23988;SDS011;12202;52.136;5.592;2023-01-08T12:46:22;7.30;;;2.22;;
23988;SDS011;12202;52.136;5.592;2023-01-08T12:48:50;4.70;;;1.83;;
23988;SDS011;12202;52.136;5.592;2023-01-08T12:56:35;7.22;;;1.85;;
23988;SDS011;12202;52.136;5.592;2023-01-08T13:04:05;7.93;;;1.90;;
23988;SDS011;12202;52.136;5.592;2023-01-08T13:06:33;5.35;;;1.95;;
23988;SDS011;12202;52.136;5.592;2023-01-08T13:08:59;5.93;;;1.70;;
23988;SDS011;12202;52.136;5.592;2023-01-08T13:11:29;4.80;;;1.80;;
23988;SDS011;12202;52.136;5.592;2023-01-08T13:14:03;10.40;;;2.20;;
23988;SDS011;12202;52.136;5.592;2023-01-08T13:16:33;5.88;;;1.92;;
23988;SDS011;12202;52.136;5.592;2023-01-08T13:19:02;6.18;;;2.50;;
23988;SDS011;12202;52.136;5.592;2023-01-08T13:21:29;3.83;;;1.85;;
23988;SDS011;12202;52.136;5.592;2023-01-08T13:24:18;9.35;;;2.33;;
23988;SDS011;12202;52.136;5.592;2023-01-08T13:26:46;7.20;;;2.15;;
23988;SDS011;12202;52.136;5.592;2023-01-08T13:29:34;5.13;;;1.95;;
23988;SDS011;12202;52.136;5.592;2023-01-08T13:32:01;7.00;;;1.80;;
23988;SDS011;12202;52.136;5.592;2023-01-08T13:34:37;5.72;;;1.70;;
23988;SDS011;12202;52.136;5.592;2023-01-08T13:37:06;9.85;;;1.85;;
23988;SDS011;12202;52.136;5.592;2023-01-08T13:39:36;3.53;;;1.50;;
23988;SDS011;12202;52.136;5.592;2023-01-08T13:44:38;6.43;;;3.05;;
23988;SDS011;12202;52.136;5.592;2023-01-08T13:47:14;9.07;;;2.63;;
23988;SDS011;12202;52.136;5.592;2023-01-08T13:49:43;12.68;;;2.45;;
23988;SDS011;12202;52.136;5.592;2023-01-08T13:54:54;7.45;;;2.72;;
23988;SDS011;12202;52.136;5.592;2023-01-08T13:57:20;10.35;;;2.10;;
23988;SDS011;12202;52.136;5.592;2023-01-08T14:04:52;6.15;;;3.20;;
23988;SDS011;12202;52.136;5.592;2023-01-08T14:07:18;7.80;;;2.33;;
23988;SDS011;12202;52.136;5.592;2023-01-08T14:09:44;6.95;;;2.00;;
23988;SDS011;12202;52.136;5.592;2023-01-08T14:12:14;11.55;;;2.38;;
23988;SDS011;12202;52.136;5.592;2023-01-08T14:14:45;7.07;;;2.10;;
23988;SDS011;12202;52.136;5.592;2023-01-08T14:17:15;13.30;;;2.13;;
23988;SDS011;12202;52.136;5.592;2023-01-08T14:19:42;3.45;;;1.80;;
23988;SDS011;12202;52.136;5.592;2023-01-08T14:22:18;6.15;;;1.92;;
23988;SDS011;12202;52.136;5.592;2023-01-08T14:24:46;13.38;;;3.08;;
23988;SDS011;12202;52.136;5.592;2023-01-08T14:27:23;8.63;;;2.13;;
23988;SDS011;12202;52.136;5.592;2023-01-08T14:29:50;8.50;;;2.45;;
23988;SDS011;12202;52.136;5.592;2023-01-08T14:32:17;10.75;;;2.42;;
23988;SDS011;12202;52.136;5.592;2023-01-08T14:34:43;7.90;;;2.47;;
23988;SDS011;12202;52.136;5.592;2023-01-08T14:37:13;6.20;;;2.65;;
23988;SDS011;12202;52.136;5.592;2023-01-08T14:39:39;8.55;;;2.38;;
23988;SDS011;12202;52.136;5.592;2023-01-08T14:44:57;7.78;;;2.83;;
23988;SDS011;12202;52.136;5.592;2023-01-08T14:47:26;8.80;;;3.53;;
23988;SDS011;12202;52.136;5.592;2023-01-08T14:49:53;20.13;;;4.32;;
23988;SDS011;12202;52.136;5.592;2023-01-08T14:52:19;11.45;;;3.03;;
23988;SDS011;12202;52.136;5.592;2023-01-08T14:54:47;15.13;;;3.00;;
23988;SDS011;12202;52.136;5.592;2023-01-08T14:57:14;12.95;;;3.30;;
23988;SDS011;12202;52.136;5.592;2023-01-08T14:59:40;10.02;;;2.72;;
23988;SDS011;12202;52.136;5.592;2023-01-08T15:02:12;12.60;;;3.15;;
23988;SDS011;12202;52.136;5.592;2023-01-08T15:04:41;9.93;;;2.75;;
23988;SDS011;12202;52.136;5.592;2023-01-08T15:07:24;12.10;;;3.00;;
23988;SDS011;12202;52.136;5.592;2023-01-08T15:09:57;7.32;;;2.75;;
23988;SDS011;12202;52.136;5.592;2023-01-08T15:12:26;14.25;;;2.85;;
23988;SDS011;12202;52.136;5.592;2023-01-08T15:14:52;16.45;;;4.30;;
23988;SDS011;12202;52.136;5.592;2023-01-08T15:17:19;12.95;;;2.80;;
23988;SDS011;12202;52.136;5.592;2023-01-08T15:19:55;13.38;;;3.08;;
23988;SDS011;12202;52.136;5.592;2023-01-08T15:22:26;17.77;;;3.75;;
23988;SDS011;12202;52.136;5.592;2023-01-08T15:24:56;9.73;;;4.10;;
23988;SDS011;12202;52.136;5.592;2023-01-08T15:27:23;14.85;;;4.85;;
23988;SDS011;12202;52.136;5.592;2023-01-08T15:29:50;22.45;;;6.50;;
23988;SDS011;12202;52.136;5.592;2023-01-08T15:32:22;18.00;;;4.53;;
23988;SDS011;12202;52.136;5.592;2023-01-08T15:34:52;11.15;;;4.03;;
23988;SDS011;12202;52.136;5.592;2023-01-08T15:37:18;12.80;;;4.60;;
23988;SDS011;12202;52.136;5.592;2023-01-08T15:39:44;14.30;;;4.53;;
23988;SDS011;12202;52.136;5.592;2023-01-08T15:42:28;13.98;;;5.70;;
23988;SDS011;12202;52.136;5.592;2023-01-08T15:45:15;13.23;;;3.95;;
23988;SDS011;12202;52.136;5.592;2023-01-08T15:47:41;19.02;;;3.75;;
23988;SDS011;12202;52.136;5.592;2023-01-08T15:50:07;16.40;;;3.38;;
23988;SDS011;12202;52.136;5.592;2023-01-08T15:52:34;20.73;;;3.97;;
23988;SDS011;12202;52.136;5.592;2023-01-08T15:55:01;16.45;;;5.13;;
23988;SDS011;12202;52.136;5.592;2023-01-08T15:57:27;17.50;;;4.32;;